Amber, Iowa
Current Conditions -  °F | °C
As of 4:55 PM on Thursday 27 Nov 2014 (Local Time) from KMXO Reporting Station
Clear Clear  
Wind Chill:   Ceiling: Unl
Heat Index: 12°   Visibility: 10mi
Dew Point:   Wind: 7mph
Humidity: 62%   Direction: 270°W
Pressure: 30.43"   Gusts: NA
Location:  42.1396°N, 91.2844°W
Report Text: KMXO 272255Z AUTO 27006KT 10SM CLR M11/M17 A3043 RMK AO2
Loading
Personal Weather Stations






























Interactive Weather Map New forecast layout! Learn more

10-Day Weather Forecast

Advertisements
Track Severe Weather on mobile